sensor_id;sensor_type;location;lat;lon;timestamp;P1;durP1;ratioP1;P2;durP2;ratioP2
2558;SDS011;1289;53.488;10.006;2022-11-20T00:02:16;8.03;;;7.23;;
2558;SDS011;1289;53.488;10.006;2022-11-20T00:04:43;6.90;;;6.40;;
2558;SDS011;1289;53.488;10.006;2022-11-20T00:07:11;7.27;;;6.67;;
2558;SDS011;1289;53.488;10.006;2022-11-20T00:09:37;7.90;;;7.20;;
2558;SDS011;1289;53.488;10.006;2022-11-20T00:12:04;8.13;;;7.37;;
2558;SDS011;1289;53.488;10.006;2022-11-20T00:14:31;11.50;;;7.20;;
2558;SDS011;1289;53.488;10.006;2022-11-20T00:16:57;7.93;;;7.20;;
2558;SDS011;1289;53.488;10.006;2022-11-20T00:19:24;7.13;;;6.53;;
2558;SDS011;1289;53.488;10.006;2022-11-20T00:21:50;9.23;;;7.70;;
2558;SDS011;1289;53.488;10.006;2022-11-20T00:24:20;7.00;;;6.50;;
2558;SDS011;1289;53.488;10.006;2022-11-20T00:26:46;7.60;;;6.80;;
2558;SDS011;1289;53.488;10.006;2022-11-20T00:29:13;9.70;;;7.90;;
2558;SDS011;1289;53.488;10.006;2022-11-20T00:31:39;8.07;;;7.27;;
2558;SDS011;1289;53.488;10.006;2022-11-20T00:34:06;7.70;;;7.00;;
2558;SDS011;1289;53.488;10.006;2022-11-20T00:36:33;7.63;;;6.93;;
2558;SDS011;1289;53.488;10.006;2022-11-20T00:39:00;9.00;;;8.07;;
2558;SDS011;1289;53.488;10.006;2022-11-20T00:41:28;7.47;;;6.80;;
2558;SDS011;1289;53.488;10.006;2022-11-20T00:43:55;7.97;;;7.07;;
2558;SDS011;1289;53.488;10.006;2022-11-20T00:46:22;7.20;;;6.50;;
2558;SDS011;1289;53.488;10.006;2022-11-20T00:48:50;7.43;;;6.70;;
2558;SDS011;1289;53.488;10.006;2022-11-20T00:51:18;8.70;;;7.40;;
2558;SDS011;1289;53.488;10.006;2022-11-20T00:53:45;7.63;;;6.90;;
2558;SDS011;1289;53.488;10.006;2022-11-20T00:56:13;6.97;;;6.47;;
2558;SDS011;1289;53.488;10.006;2022-11-20T00:58:42;8.20;;;7.40;;
2558;SDS011;1289;53.488;10.006;2022-11-20T01:01:10;7.83;;;7.13;;
2558;SDS011;1289;53.488;10.006;2022-11-20T01:03:39;7.20;;;6.50;;
2558;SDS011;1289;53.488;10.006;2022-11-20T01:06:06;7.77;;;6.97;;
2558;SDS011;1289;53.488;10.006;2022-11-20T01:08:36;7.40;;;6.80;;
2558;SDS011;1289;53.488;10.006;2022-11-20T01:11:04;8.07;;;7.27;;
2558;SDS011;1289;53.488;10.006;2022-11-20T01:13:31;7.20;;;6.60;;
2558;SDS011;1289;53.488;10.006;2022-11-20T01:16:07;8.73;;;7.20;;
2558;SDS011;1289;53.488;10.006;2022-11-20T01:18:35;7.60;;;6.87;;
2558;SDS011;1289;53.488;10.006;2022-11-20T01:21:02;6.57;;;5.97;;
2558;SDS011;1289;53.488;10.006;2022-11-20T01:23:30;7.30;;;6.70;;
2558;SDS011;1289;53.488;10.006;2022-11-20T01:25:59;7.20;;;6.60;;
2558;SDS011;1289;53.488;10.006;2022-11-20T01:28:26;7.90;;;7.20;;
2558;SDS011;1289;53.488;10.006;2022-11-20T01:30:54;7.33;;;6.73;;
2558;SDS011;1289;53.488;10.006;2022-11-20T01:33:22;7.70;;;7.10;;
2558;SDS011;1289;53.488;10.006;2022-11-20T01:35:49;9.50;;;7.90;;
2558;SDS011;1289;53.488;10.006;2022-11-20T01:38:15;6.90;;;6.03;;
2558;SDS011;1289;53.488;10.006;2022-11-20T01:40:42;7.90;;;7.20;;
2558;SDS011;1289;53.488;10.006;2022-11-20T01:43:11;7.80;;;7.10;;
2558;SDS011;1289;53.488;10.006;2022-11-20T01:45:58;6.63;;;6.13;;
2558;SDS011;1289;53.488;10.006;2022-11-20T01:48:30;6.90;;;6.37;;
2558;SDS011;1289;53.488;10.006;2022-11-20T01:51:00;6.27;;;5.77;;
2558;SDS011;1289;53.488;10.006;2022-11-20T01:53:28;7.57;;;6.87;;
2558;SDS011;1289;53.488;10.006;2022-11-20T01:55:57;7.17;;;6.57;;
2558;SDS011;1289;53.488;10.006;2022-11-20T01:58:27;7.00;;;6.40;;
2558;SDS011;1289;53.488;10.006;2022-11-20T02:00:56;7.47;;;6.77;;
2558;SDS011;1289;53.488;10.006;2022-11-20T02:03:22;7.83;;;7.10;;
2558;SDS011;1289;53.488;10.006;2022-11-20T02:05:51;7.43;;;6.80;;
2558;SDS011;1289;53.488;10.006;2022-11-20T02:08:21;7.63;;;6.90;;
2558;SDS011;1289;53.488;10.006;2022-11-20T02:10:49;6.80;;;6.30;;
2558;SDS011;1289;53.488;10.006;2022-11-20T02:13:16;8.20;;;7.27;;
2558;SDS011;1289;53.488;10.006;2022-11-20T02:16:00;7.50;;;6.77;;
2558;SDS011;1289;53.488;10.006;2022-11-20T02:18:27;8.03;;;7.27;;
2558;SDS011;1289;53.488;10.006;2022-11-20T02:20:57;8.90;;;7.70;;
2558;SDS011;1289;53.488;10.006;2022-11-20T02:23:27;6.40;;;5.83;;
2558;SDS011;1289;53.488;10.006;2022-11-20T02:26:00;7.70;;;7.00;;
2558;SDS011;1289;53.488;10.006;2022-11-20T02:28:28;7.73;;;6.70;;
2558;SDS011;1289;53.488;10.006;2022-11-20T02:30:54;8.43;;;7.63;;
2558;SDS011;1289;53.488;10.006;2022-11-20T02:33:21;8.10;;;7.30;;
2558;SDS011;1289;53.488;10.006;2022-11-20T02:35:48;6.70;;;6.10;;
2558;SDS011;1289;53.488;10.006;2022-11-20T02:38:15;7.43;;;6.73;;
2558;SDS011;1289;53.488;10.006;2022-11-20T02:40:41;7.30;;;6.60;;
2558;SDS011;1289;53.488;10.006;2022-11-20T02:43:09;8.43;;;7.00;;
2558;SDS011;1289;53.488;10.006;2022-11-20T02:45:36;6.97;;;6.30;;
2558;SDS011;1289;53.488;10.006;2022-11-20T02:51:22;7.50;;;6.77;;
2558;SDS011;1289;53.488;10.006;2022-11-20T02:53:49;7.40;;;6.70;;
2558;SDS011;1289;53.488;10.006;2022-11-20T02:56:16;7.40;;;6.70;;
2558;SDS011;1289;53.488;10.006;2022-11-20T02:58:44;7.20;;;6.50;;
2558;SDS011;1289;53.488;10.006;2022-11-20T03:01:10;7.70;;;6.90;;
2558;SDS011;1289;53.488;10.006;2022-11-20T03:03:37;6.87;;;6.37;;
2558;SDS011;1289;53.488;10.006;2022-11-20T03:06:03;6.93;;;6.40;;
2558;SDS011;1289;53.488;10.006;2022-11-20T03:08:30;7.00;;;6.50;;
2558;SDS011;1289;53.488;10.006;2022-11-20T03:11:01;7.20;;;6.50;;
2558;SDS011;1289;53.488;10.006;2022-11-20T03:13:28;10.73;;;6.50;;
2558;SDS011;1289;53.488;10.006;2022-11-20T03:15:56;7.20;;;6.60;;
2558;SDS011;1289;53.488;10.006;2022-11-20T03:18:23;9.33;;;6.90;;
2558;SDS011;1289;53.488;10.006;2022-11-20T03:20:49;9.93;;;6.10;;
2558;SDS011;1289;53.488;10.006;2022-11-20T03:23:16;7.13;;;6.63;;
2558;SDS011;1289;53.488;10.006;2022-11-20T03:25:43;6.33;;;5.83;;
2558;SDS011;1289;53.488;10.006;2022-11-20T03:28:09;8.30;;;6.20;;
2558;SDS011;1289;53.488;10.006;2022-11-20T03:30:36;7.90;;;7.20;;
2558;SDS011;1289;53.488;10.006;2022-11-20T03:33:03;7.43;;;6.70;;
2558;SDS011;1289;53.488;10.006;2022-11-20T03:35:30;7.10;;;6.40;;
2558;SDS011;1289;53.488;10.006;2022-11-20T03:37:57;7.83;;;7.03;;
2558;SDS011;1289;53.488;10.006;2022-11-20T03:40:23;8.97;;;6.43;;
2558;SDS011;1289;53.488;10.006;2022-11-20T03:42:50;7.37;;;6.77;;
2558;SDS011;1289;53.488;10.006;2022-11-20T03:45:17;6.73;;;6.23;;
2558;SDS011;1289;53.488;10.006;2022-11-20T03:47:44;6.50;;;6.00;;
2558;SDS011;1289;53.488;10.006;2022-11-20T03:50:12;7.30;;;6.70;;
2558;SDS011;1289;53.488;10.006;2022-11-20T03:52:39;6.70;;;6.10;;
2558;SDS011;1289;53.488;10.006;2022-11-20T03:55:06;7.33;;;6.60;;
2558;SDS011;1289;53.488;10.006;2022-11-20T03:57:33;6.90;;;6.30;;
2558;SDS011;1289;53.488;10.006;2022-11-20T03:59:59;6.70;;;6.10;;
2558;SDS011;1289;53.488;10.006;2022-11-20T04:02:29;5.97;;;5.47;;
2558;SDS011;1289;53.488;10.006;2022-11-20T04:04:56;6.97;;;6.27;;
2558;SDS011;1289;53.488;10.006;2022-11-20T04:07:24;6.77;;;6.17;;
2558;SDS011;1289;53.488;10.006;2022-11-20T04:09:50;7.00;;;6.40;;
2558;SDS011;1289;53.488;10.006;2022-11-20T04:12:17;8.63;;;6.43;;
2558;SDS011;1289;53.488;10.006;2022-11-20T04:14:44;6.40;;;5.90;;
2558;SDS011;1289;53.488;10.006;2022-11-20T04:17:10;7.17;;;6.60;;
2558;SDS011;1289;53.488;10.006;2022-11-20T04:19:37;6.60;;;6.03;;
2558;SDS011;1289;53.488;10.006;2022-11-20T04:22:04;7.17;;;6.57;;
2558;SDS011;1289;53.488;10.006;2022-11-20T04:24:31;7.07;;;6.27;;
2558;SDS011;1289;53.488;10.006;2022-11-20T04:26:58;7.13;;;6.53;;
2558;SDS011;1289;53.488;10.006;2022-11-20T04:29:24;6.80;;;6.20;;
2558;SDS011;1289;53.488;10.006;2022-11-20T04:31:51;6.90;;;6.30;;
2558;SDS011;1289;53.488;10.006;2022-11-20T04:34:18;6.93;;;6.23;;
2558;SDS011;1289;53.488;10.006;2022-11-20T04:36:44;7.07;;;5.90;;
2558;SDS011;1289;53.488;10.006;2022-11-20T04:39:11;7.90;;;7.13;;
2558;SDS011;1289;53.488;10.006;2022-11-20T04:41:40;7.30;;;6.60;;
2558;SDS011;1289;53.488;10.006;2022-11-20T04:44:06;7.80;;;7.20;;
2558;SDS011;1289;53.488;10.006;2022-11-20T04:46:33;6.80;;;6.20;;
2558;SDS011;1289;53.488;10.006;2022-11-20T04:49:05;7.73;;;6.93;;
2558;SDS011;1289;53.488;10.006;2022-11-20T04:51:32;7.13;;;6.50;;
2558;SDS011;1289;53.488;10.006;2022-11-20T04:53:59;11.40;;;6.57;;
2558;SDS011;1289;53.488;10.006;2022-11-20T04:56:26;7.13;;;6.63;;
2558;SDS011;1289;53.488;10.006;2022-11-20T04:58:54;6.77;;;6.07;;
2558;SDS011;1289;53.488;10.006;2022-11-20T05:01:21;7.20;;;6.50;;
2558;SDS011;1289;53.488;10.006;2022-11-20T05:03:48;6.87;;;6.37;;
2558;SDS011;1289;53.488;10.006;2022-11-20T05:06:16;7.50;;;6.80;;
2558;SDS011;1289;53.488;10.006;2022-11-20T05:08:44;6.93;;;6.33;;
2558;SDS011;1289;53.488;10.006;2022-11-20T05:11:11;6.37;;;5.87;;
2558;SDS011;1289;53.488;10.006;2022-11-20T05:13:39;7.03;;;6.33;;
2558;SDS011;1289;53.488;10.006;2022-11-20T05:16:08;7.33;;;6.63;;
2558;SDS011;1289;53.488;10.006;2022-11-20T05:18:36;7.40;;;6.70;;
2558;SDS011;1289;53.488;10.006;2022-11-20T05:21:03;7.47;;;6.40;;
2558;SDS011;1289;53.488;10.006;2022-11-20T05:23:30;7.40;;;6.40;;
2558;SDS011;1289;53.488;10.006;2022-11-20T05:25:57;6.90;;;6.30;;
2558;SDS011;1289;53.488;10.006;2022-11-20T05:28:24;8.20;;;7.40;;
2558;SDS011;1289;53.488;10.006;2022-11-20T05:30:52;7.13;;;6.50;;
2558;SDS011;1289;53.488;10.006;2022-11-20T05:33:20;7.37;;;6.67;;
2558;SDS011;1289;53.488;10.006;2022-11-20T05:35:47;7.40;;;6.60;;
2558;SDS011;1289;53.488;10.006;2022-11-20T05:38:14;8.30;;;7.20;;
2558;SDS011;1289;53.488;10.006;2022-11-20T05:40:40;7.03;;;6.43;;
2558;SDS011;1289;53.488;10.006;2022-11-20T05:43:07;7.07;;;6.47;;
2558;SDS011;1289;53.488;10.006;2022-11-20T05:45:34;7.33;;;6.63;;
2558;SDS011;1289;53.488;10.006;2022-11-20T05:48:00;6.83;;;6.23;;
2558;SDS011;1289;53.488;10.006;2022-11-20T05:50:28;7.47;;;6.50;;
2558;SDS011;1289;53.488;10.006;2022-11-20T05:52:57;7.67;;;6.90;;
2558;SDS011;1289;53.488;10.006;2022-11-20T05:55:24;7.27;;;6.60;;
2558;SDS011;1289;53.488;10.006;2022-11-20T05:57:51;7.93;;;6.80;;
2558;SDS011;1289;53.488;10.006;2022-11-20T06:00:18;8.37;;;6.63;;
2558;SDS011;1289;53.488;10.006;2022-11-20T06:02:45;7.17;;;6.57;;
2558;SDS011;1289;53.488;10.006;2022-11-20T06:05:11;7.50;;;6.80;;
2558;SDS011;1289;53.488;10.006;2022-11-20T06:07:39;8.57;;;7.77;;
2558;SDS011;1289;53.488;10.006;2022-11-20T06:10:06;6.70;;;6.10;;
2558;SDS011;1289;53.488;10.006;2022-11-20T06:12:33;6.37;;;5.87;;
2558;SDS011;1289;53.488;10.006;2022-11-20T06:14:59;7.13;;;6.60;;
2558;SDS011;1289;53.488;10.006;2022-11-20T06:17:26;6.87;;;6.37;;
2558;SDS011;1289;53.488;10.006;2022-11-20T06:19:52;7.07;;;6.37;;
2558;SDS011;1289;53.488;10.006;2022-11-20T06:22:19;7.37;;;6.77;;
2558;SDS011;1289;53.488;10.006;2022-11-20T06:24:47;7.40;;;6.70;;
2558;SDS011;1289;53.488;10.006;2022-11-20T06:27:13;7.50;;;6.80;;
2558;SDS011;1289;53.488;10.006;2022-11-20T06:29:40;7.83;;;7.20;;
2558;SDS011;1289;53.488;10.006;2022-11-20T06:32:07;7.67;;;6.97;;
2558;SDS011;1289;53.488;10.006;2022-11-20T06:34:33;8.07;;;7.37;;
2558;SDS011;1289;53.488;10.006;2022-11-20T06:37:00;7.47;;;6.83;;
2558;SDS011;1289;53.488;10.006;2022-11-20T06:39:26;10.63;;;7.57;;
2558;SDS011;1289;53.488;10.006;2022-11-20T06:41:54;7.00;;;6.40;;
2558;SDS011;1289;53.488;10.006;2022-11-20T06:44:21;8.33;;;6.77;;
2558;SDS011;1289;53.488;10.006;2022-11-20T06:46:47;7.60;;;6.90;;
2558;SDS011;1289;53.488;10.006;2022-11-20T06:49:14;8.10;;;7.37;;
2558;SDS011;1289;53.488;10.006;2022-11-20T06:51:40;6.97;;;6.37;;
2558;SDS011;1289;53.488;10.006;2022-11-20T06:54:07;7.67;;;7.03;;
2558;SDS011;1289;53.488;10.006;2022-11-20T06:56:34;7.40;;;6.80;;
2558;SDS011;1289;53.488;10.006;2022-11-20T06:59:04;10.70;;;7.40;;
2558;SDS011;1289;53.488;10.006;2022-11-20T07:01:31;8.00;;;7.17;;
2558;SDS011;1289;53.488;10.006;2022-11-20T07:03:58;7.80;;;7.20;;
2558;SDS011;1289;53.488;10.006;2022-11-20T07:06:25;6.70;;;6.17;;
2558;SDS011;1289;53.488;10.006;2022-11-20T07:08:51;7.63;;;7.03;;
2558;SDS011;1289;53.488;10.006;2022-11-20T07:11:18;8.20;;;7.30;;
2558;SDS011;1289;53.488;10.006;2022-11-20T07:13:45;8.40;;;7.70;;
2558;SDS011;1289;53.488;10.006;2022-11-20T07:16:13;7.53;;;6.83;;
2558;SDS011;1289;53.488;10.006;2022-11-20T07:18:41;9.13;;;8.30;;
2558;SDS011;1289;53.488;10.006;2022-11-20T07:21:09;9.20;;;8.40;;
2558;SDS011;1289;53.488;10.006;2022-11-20T07:23:36;8.30;;;7.50;;
2558;SDS011;1289;53.488;10.006;2022-11-20T07:26:03;8.87;;;8.03;;
2558;SDS011;1289;53.488;10.006;2022-11-20T07:28:30;8.60;;;7.80;;
2558;SDS011;1289;53.488;10.006;2022-11-20T07:30:57;9.63;;;8.47;;
2558;SDS011;1289;53.488;10.006;2022-11-20T07:33:25;9.13;;;8.23;;
2558;SDS011;1289;53.488;10.006;2022-11-20T07:35:52;9.27;;;7.90;;
2558;SDS011;1289;53.488;10.006;2022-11-20T07:38:18;11.30;;;9.23;;
2558;SDS011;1289;53.488;10.006;2022-11-20T07:40:45;9.97;;;8.97;;
2558;SDS011;1289;53.488;10.006;2022-11-20T07:43:11;11.27;;;9.90;;
2558;SDS011;1289;53.488;10.006;2022-11-20T07:45:38;10.07;;;8.20;;
2558;SDS011;1289;53.488;10.006;2022-11-20T07:48:05;10.50;;;9.10;;
2558;SDS011;1289;53.488;10.006;2022-11-20T07:50:33;9.67;;;8.77;;
2558;SDS011;1289;53.488;10.006;2022-11-20T07:53:00;10.43;;;9.43;;
2558;SDS011;1289;53.488;10.006;2022-11-20T07:55:27;9.07;;;8.17;;
2558;SDS011;1289;53.488;10.006;2022-11-20T07:57:54;8.83;;;8.13;;
2558;SDS011;1289;53.488;10.006;2022-11-20T08:00:22;9.97;;;8.97;;
2558;SDS011;1289;53.488;10.006;2022-11-20T08:02:48;9.50;;;8.60;;
2558;SDS011;1289;53.488;10.006;2022-11-20T08:05:15;9.20;;;8.40;;
2558;SDS011;1289;53.488;10.006;2022-11-20T08:07:43;9.63;;;8.33;;
2558;SDS011;1289;53.488;10.006;2022-11-20T08:10:11;9.30;;;8.40;;
2558;SDS011;1289;53.488;10.006;2022-11-20T08:12:43;9.37;;;8.50;;
2558;SDS011;1289;53.488;10.006;2022-11-20T08:15:27;12.87;;;10.53;;
2558;SDS011;1289;53.488;10.006;2022-11-20T08:17:58;10.10;;;9.00;;
2558;SDS011;1289;53.488;10.006;2022-11-20T08:20:25;13.00;;;10.47;;
2558;SDS011;1289;53.488;10.006;2022-11-20T08:22:56;10.20;;;9.30;;
2558;SDS011;1289;53.488;10.006;2022-11-20T08:25:24;10.93;;;9.60;;
2558;SDS011;1289;53.488;10.006;2022-11-20T08:27:50;11.10;;;10.10;;
2558;SDS011;1289;53.488;10.006;2022-11-20T08:30:17;10.10;;;9.20;;
2558;SDS011;1289;53.488;10.006;2022-11-20T08:32:44;10.10;;;9.10;;
2558;SDS011;1289;53.488;10.006;2022-11-20T08:35:10;11.03;;;9.90;;
2558;SDS011;1289;53.488;10.006;2022-11-20T08:37:37;10.77;;;9.67;;
2558;SDS011;1289;53.488;10.006;2022-11-20T08:40:08;10.47;;;9.37;;
2558;SDS011;1289;53.488;10.006;2022-11-20T08:42:36;10.80;;;9.83;;
2558;SDS011;1289;53.488;10.006;2022-11-20T08:45:03;10.70;;;9.77;;
2558;SDS011;1289;53.488;10.006;2022-11-20T08:47:30;14.50;;;10.17;;
2558;SDS011;1289;53.488;10.006;2022-11-20T08:49:57;12.33;;;10.60;;
2558;SDS011;1289;53.488;10.006;2022-11-20T08:52:23;10.90;;;9.80;;
2558;SDS011;1289;53.488;10.006;2022-11-20T08:54:50;11.63;;;10.50;;
2558;SDS011;1289;53.488;10.006;2022-11-20T08:57:18;10.57;;;9.47;;
2558;SDS011;1289;53.488;10.006;2022-11-20T08:59:44;10.47;;;9.43;;
2558;SDS011;1289;53.488;10.006;2022-11-20T09:02:11;10.50;;;9.47;;
2558;SDS011;1289;53.488;10.006;2022-11-20T09:04:38;9.57;;;8.67;;
2558;SDS011;1289;53.488;10.006;2022-11-20T09:07:04;11.73;;;10.13;;
2558;SDS011;1289;53.488;10.006;2022-11-20T09:09:31;9.67;;;8.77;;
2558;SDS011;1289;53.488;10.006;2022-11-20T09:11:57;11.00;;;10.00;;
2558;SDS011;1289;53.488;10.006;2022-11-20T09:14:25;10.57;;;9.47;;
2558;SDS011;1289;53.488;10.006;2022-11-20T09:16:54;10.27;;;9.37;;
2558;SDS011;1289;53.488;10.006;2022-11-20T09:19:20;10.70;;;9.50;;
2558;SDS011;1289;53.488;10.006;2022-11-20T09:21:47;10.40;;;9.30;;
2558;SDS011;1289;53.488;10.006;2022-11-20T09:24:14;10.43;;;9.37;;
2558;SDS011;1289;53.488;10.006;2022-11-20T09:26:40;9.90;;;8.43;;
2558;SDS011;1289;53.488;10.006;2022-11-20T09:29:07;10.70;;;9.70;;
2558;SDS011;1289;53.488;10.006;2022-11-20T09:31:35;10.37;;;9.37;;
2558;SDS011;1289;53.488;10.006;2022-11-20T09:34:01;9.03;;;8.27;;
2558;SDS011;1289;53.488;10.006;2022-11-20T09:36:28;9.53;;;8.50;;
2558;SDS011;1289;53.488;10.006;2022-11-20T09:38:54;9.73;;;8.73;;
2558;SDS011;1289;53.488;10.006;2022-11-20T09:41:29;8.73;;;8.00;;
2558;SDS011;1289;53.488;10.006;2022-11-20T09:44:04;9.57;;;8.67;;
2558;SDS011;1289;53.488;10.006;2022-11-20T09:46:38;8.03;;;7.30;;
2558;SDS011;1289;53.488;10.006;2022-11-20T09:49:13;9.07;;;8.27;;
2558;SDS011;1289;53.488;10.006;2022-11-20T09:51:56;10.57;;;8.07;;
2558;SDS011;1289;53.488;10.006;2022-11-20T09:54:26;7.87;;;7.10;;
2558;SDS011;1289;53.488;10.006;2022-11-20T09:56:56;8.50;;;7.47;;
2558;SDS011;1289;53.488;10.006;2022-11-20T09:59:31;7.80;;;7.20;;
2558;SDS011;1289;53.488;10.006;2022-11-20T10:02:02;8.03;;;7.13;;
2558;SDS011;1289;53.488;10.006;2022-11-20T10:04:42;7.83;;;7.13;;
2558;SDS011;1289;53.488;10.006;2022-11-20T10:07:12;8.30;;;7.53;;
2558;SDS011;1289;53.488;10.006;2022-11-20T10:09:40;7.50;;;6.80;;
2558;SDS011;1289;53.488;10.006;2022-11-20T10:12:11;6.90;;;6.30;;
2558;SDS011;1289;53.488;10.006;2022-11-20T10:14:48;6.80;;;6.20;;
2558;SDS011;1289;53.488;10.006;2022-11-20T10:17:23;6.80;;;6.23;;
2558;SDS011;1289;53.488;10.006;2022-11-20T10:20:01;6.30;;;5.70;;
2558;SDS011;1289;53.488;10.006;2022-11-20T10:22:37;5.47;;;4.97;;
2558;SDS011;1289;53.488;10.006;2022-11-20T10:25:11;4.90;;;4.40;;
2558;SDS011;1289;53.488;10.006;2022-11-20T10:27:47;5.43;;;4.93;;
2558;SDS011;1289;53.488;10.006;2022-11-20T10:30:37;4.80;;;4.40;;
2558;SDS011;1289;53.488;10.006;2022-11-20T10:33:08;4.33;;;4.03;;
2558;SDS011;1289;53.488;10.006;2022-11-20T10:35:41;5.03;;;4.43;;
2558;SDS011;1289;53.488;10.006;2022-11-20T10:38:19;4.10;;;3.80;;
2558;SDS011;1289;53.488;10.006;2022-11-20T10:40:48;4.03;;;3.73;;
2558;SDS011;1289;53.488;10.006;2022-11-20T10:43:18;3.77;;;3.47;;
2558;SDS011;1289;53.488;10.006;2022-11-20T10:45:48;4.30;;;3.90;;
2558;SDS011;1289;53.488;10.006;2022-11-20T10:48:21;4.03;;;3.73;;
2558;SDS011;1289;53.488;10.006;2022-11-20T10:50:53;5.83;;;3.50;;
2558;SDS011;1289;53.488;10.006;2022-11-20T10:53:28;4.60;;;4.30;;
2558;SDS011;1289;53.488;10.006;2022-11-20T10:56:02;4.70;;;4.30;;
2558;SDS011;1289;53.488;10.006;2022-11-20T10:58:34;4.10;;;3.80;;
2558;SDS011;1289;53.488;10.006;2022-11-20T11:01:04;3.50;;;3.20;;
2558;SDS011;1289;53.488;10.006;2022-11-20T11:03:32;4.03;;;3.73;;
2558;SDS011;1289;53.488;10.006;2022-11-20T11:06:00;4.53;;;4.13;;
2558;SDS011;1289;53.488;10.006;2022-11-20T11:08:32;5.10;;;4.60;;
2558;SDS011;1289;53.488;10.006;2022-11-20T11:11:02;4.93;;;4.53;;
2558;SDS011;1289;53.488;10.006;2022-11-20T11:13:33;4.77;;;4.47;;
2558;SDS011;1289;53.488;10.006;2022-11-20T11:16:00;5.00;;;4.63;;
2558;SDS011;1289;53.488;10.006;2022-11-20T11:18:27;5.23;;;4.83;;
2558;SDS011;1289;53.488;10.006;2022-11-20T11:20:57;5.20;;;4.80;;
2558;SDS011;1289;53.488;10.006;2022-11-20T11:23:30;5.30;;;4.90;;
2558;SDS011;1289;53.488;10.006;2022-11-20T11:25:59;5.00;;;4.70;;
2558;SDS011;1289;53.488;10.006;2022-11-20T11:28:27;5.63;;;5.13;;
2558;SDS011;1289;53.488;10.006;2022-11-20T11:30:54;5.03;;;4.50;;
2558;SDS011;1289;53.488;10.006;2022-11-20T11:33:21;5.30;;;4.90;;
2558;SDS011;1289;53.488;10.006;2022-11-20T11:35:49;5.57;;;5.07;;
2558;SDS011;1289;53.488;10.006;2022-11-20T11:38:21;5.70;;;5.20;;
2558;SDS011;1289;53.488;10.006;2022-11-20T11:40:49;6.07;;;5.57;;
2558;SDS011;1289;53.488;10.006;2022-11-20T11:43:19;6.00;;;5.40;;
2558;SDS011;1289;53.488;10.006;2022-11-20T11:46:05;5.80;;;5.30;;
2558;SDS011;1289;53.488;10.006;2022-11-20T11:48:40;5.30;;;4.90;;
2558;SDS011;1289;53.488;10.006;2022-11-20T11:51:08;5.13;;;4.73;;
2558;SDS011;1289;53.488;10.006;2022-11-20T11:53:36;5.43;;;5.03;;
2558;SDS011;1289;53.488;10.006;2022-11-20T11:56:07;5.63;;;5.13;;
2558;SDS011;1289;53.488;10.006;2022-11-20T11:58:40;7.77;;;5.20;;
2558;SDS011;1289;53.488;10.006;2022-11-20T12:01:12;5.70;;;5.20;;
2558;SDS011;1289;53.488;10.006;2022-11-20T12:03:50;5.00;;;4.70;;
2558;SDS011;1289;53.488;10.006;2022-11-20T12:06:19;5.37;;;4.97;;
2558;SDS011;1289;53.488;10.006;2022-11-20T12:08:49;5.37;;;4.97;;
2558;SDS011;1289;53.488;10.006;2022-11-20T12:11:19;4.73;;;4.43;;
2558;SDS011;1289;53.488;10.006;2022-11-20T12:13:48;4.97;;;4.53;;
2558;SDS011;1289;53.488;10.006;2022-11-20T12:16:19;5.03;;;4.63;;
2558;SDS011;1289;53.488;10.006;2022-11-20T12:18:46;5.30;;;4.87;;
2558;SDS011;1289;53.488;10.006;2022-11-20T12:21:19;4.83;;;4.43;;
2558;SDS011;1289;53.488;10.006;2022-11-20T12:23:51;4.67;;;4.27;;
2558;SDS011;1289;53.488;10.006;2022-11-20T12:26:27;5.20;;;4.80;;
2558;SDS011;1289;53.488;10.006;2022-11-20T12:29:03;6.20;;;5.20;;
2558;SDS011;1289;53.488;10.006;2022-11-20T12:31:37;5.60;;;5.20;;
2558;SDS011;1289;53.488;10.006;2022-11-20T12:34:30;5.70;;;5.20;;
2558;SDS011;1289;53.488;10.006;2022-11-20T12:37:07;5.90;;;5.40;;
2558;SDS011;1289;53.488;10.006;2022-11-20T12:39:43;5.80;;;5.40;;
2558;SDS011;1289;53.488;10.006;2022-11-20T12:42:22;5.10;;;4.70;;
2558;SDS011;1289;53.488;10.006;2022-11-20T12:45:14;4.40;;;4.10;;
2558;SDS011;1289;53.488;10.006;2022-11-20T12:47:52;4.97;;;3.80;;
2558;SDS011;1289;53.488;10.006;2022-11-20T12:50:28;4.40;;;4.07;;
2558;SDS011;1289;53.488;10.006;2022-11-20T12:53:02;4.83;;;4.43;;
2558;SDS011;1289;53.488;10.006;2022-11-20T12:55:38;4.50;;;4.20;;
2558;SDS011;1289;53.488;10.006;2022-11-20T12:58:11;4.63;;;4.23;;
2558;SDS011;1289;53.488;10.006;2022-11-20T13:00:43;4.50;;;4.17;;
2558;SDS011;1289;53.488;10.006;2022-11-20T13:06:14;4.87;;;4.47;;
2558;SDS011;1289;53.488;10.006;2022-11-20T13:08:43;5.17;;;4.10;;
2558;SDS011;1289;53.488;10.006;2022-11-20T13:11:14;4.47;;;4.07;;
2558;SDS011;1289;53.488;10.006;2022-11-20T13:13:48;4.33;;;4.03;;
2558;SDS011;1289;53.488;10.006;2022-11-20T13:16:25;4.53;;;4.13;;
2558;SDS011;1289;53.488;10.006;2022-11-20T13:18:56;4.23;;;3.93;;
2558;SDS011;1289;53.488;10.006;2022-11-20T13:21:34;4.17;;;3.87;;
2558;SDS011;1289;53.488;10.006;2022-11-20T13:24:05;4.03;;;3.73;;
2558;SDS011;1289;53.488;10.006;2022-11-20T13:26:33;5.03;;;4.20;;
2558;SDS011;1289;53.488;10.006;2022-11-20T13:29:02;4.00;;;3.77;;
2558;SDS011;1289;53.488;10.006;2022-11-20T13:31:34;5.00;;;3.67;;
2558;SDS011;1289;53.488;10.006;2022-11-20T13:34:02;4.53;;;4.23;;
2558;SDS011;1289;53.488;10.006;2022-11-20T13:36:30;4.20;;;3.90;;
2558;SDS011;1289;53.488;10.006;2022-11-20T13:38:57;4.70;;;4.40;;
2558;SDS011;1289;53.488;10.006;2022-11-20T13:41:25;4.50;;;4.10;;
2558;SDS011;1289;53.488;10.006;2022-11-20T13:44:04;4.60;;;4.20;;
2558;SDS011;1289;53.488;10.006;2022-11-20T13:46:36;4.53;;;4.23;;
2558;SDS011;1289;53.488;10.006;2022-11-20T13:49:08;4.77;;;4.30;;
2558;SDS011;1289;53.488;10.006;2022-11-20T13:51:37;4.13;;;3.83;;
2558;SDS011;1289;53.488;10.006;2022-11-20T13:54:22;4.60;;;4.20;;
2558;SDS011;1289;53.488;10.006;2022-11-20T13:57:25;5.20;;;4.80;;
2558;SDS011;1289;53.488;10.006;2022-11-20T14:00:11;5.00;;;4.60;;
2558;SDS011;1289;53.488;10.006;2022-11-20T14:02:39;5.80;;;5.20;;
2558;SDS011;1289;53.488;10.006;2022-11-20T14:05:11;4.83;;;4.43;;
2558;SDS011;1289;53.488;10.006;2022-11-20T14:07:43;5.30;;;4.90;;
2558;SDS011;1289;53.488;10.006;2022-11-20T14:10:18;7.07;;;4.83;;
2558;SDS011;1289;53.488;10.006;2022-11-20T14:12:46;5.07;;;4.67;;
2558;SDS011;1289;53.488;10.006;2022-11-20T14:15:23;5.33;;;4.67;;
2558;SDS011;1289;53.488;10.006;2022-11-20T14:17:51;5.10;;;4.70;;
2558;SDS011;1289;53.488;10.006;2022-11-20T14:20:17;5.17;;;4.50;;
2558;SDS011;1289;53.488;10.006;2022-11-20T14:22:48;5.47;;;5.00;;
2558;SDS011;1289;53.488;10.006;2022-11-20T14:25:19;5.10;;;4.70;;
2558;SDS011;1289;53.488;10.006;2022-11-20T14:27:50;5.40;;;4.90;;
2558;SDS011;1289;53.488;10.006;2022-11-20T14:30:19;4.80;;;4.43;;
2558;SDS011;1289;53.488;10.006;2022-11-20T14:32:48;5.10;;;4.70;;
2558;SDS011;1289;53.488;10.006;2022-11-20T14:35:17;5.00;;;4.60;;
2558;SDS011;1289;53.488;10.006;2022-11-20T14:37:46;4.50;;;4.20;;
2558;SDS011;1289;53.488;10.006;2022-11-20T14:40:23;4.60;;;4.30;;
2558;SDS011;1289;53.488;10.006;2022-11-20T14:42:52;4.50;;;4.10;;
2558;SDS011;1289;53.488;10.006;2022-11-20T14:45:18;7.20;;;5.60;;
2558;SDS011;1289;53.488;10.006;2022-11-20T14:47:46;5.13;;;4.63;;
2558;SDS011;1289;53.488;10.006;2022-11-20T14:50:16;5.67;;;5.17;;
2558;SDS011;1289;53.488;10.006;2022-11-20T14:52:49;4.63;;;4.13;;
2558;SDS011;1289;53.488;10.006;2022-11-20T14:55:25;5.13;;;4.43;;
2558;SDS011;1289;53.488;10.006;2022-11-20T14:57:54;5.03;;;4.63;;
2558;SDS011;1289;53.488;10.006;2022-11-20T15:00:21;6.17;;;4.80;;
2558;SDS011;1289;53.488;10.006;2022-11-20T15:02:49;4.80;;;4.40;;
2558;SDS011;1289;53.488;10.006;2022-11-20T15:05:19;4.83;;;4.50;;
2558;SDS011;1289;53.488;10.006;2022-11-20T15:07:47;5.43;;;4.93;;
2558;SDS011;1289;53.488;10.006;2022-11-20T15:10:19;4.43;;;4.03;;
2558;SDS011;1289;53.488;10.006;2022-11-20T15:12:48;5.27;;;4.77;;
2558;SDS011;1289;53.488;10.006;2022-11-20T15:15:16;5.87;;;5.37;;
2558;SDS011;1289;53.488;10.006;2022-11-20T15:17:45;5.17;;;4.80;;
2558;SDS011;1289;53.488;10.006;2022-11-20T15:20:13;5.33;;;4.93;;